sensor_id;sensor_type;location;lat;lon;timestamp;P1;durP1;ratioP1;P2;durP2;ratioP2
14474;SDS011;7323;50.848;4.334;2023-04-25T00:01:24;11.30;;;3.80;;
14474;SDS011;7323;50.848;4.334;2023-04-25T00:11:00;18.57;;;4.90;;
14474;SDS011;7323;50.848;4.334;2023-04-25T00:13:37;13.63;;;4.70;;
14474;SDS011;7323;50.848;4.334;2023-04-25T00:16:20;12.13;;;4.67;;
14474;SDS011;7323;50.848;4.334;2023-04-25T00:19:04;15.10;;;4.83;;
14474;SDS011;7323;50.848;4.334;2023-04-25T00:21:45;16.07;;;4.80;;
14474;SDS011;7323;50.848;4.334;2023-04-25T00:25:04;15.57;;;4.77;;
14474;SDS011;7323;50.848;4.334;2023-04-25T00:27:58;10.37;;;4.60;;
14474;SDS011;7323;50.848;4.334;2023-04-25T00:37:56;15.93;;;4.63;;
14474;SDS011;7323;50.848;4.334;2023-04-25T00:43:35;14.27;;;4.70;;
14474;SDS011;7323;50.848;4.334;2023-04-25T00:46:53;15.47;;;4.73;;
14474;SDS011;7323;50.848;4.334;2023-04-25T00:52:26;15.20;;;4.80;;
14474;SDS011;7323;50.848;4.334;2023-04-25T00:58:12;18.37;;;5.30;;
14474;SDS011;7323;50.848;4.334;2023-04-25T01:00:39;15.77;;;5.27;;
14474;SDS011;7323;50.848;4.334;2023-04-25T01:03:06;13.87;;;5.57;;
14474;SDS011;7323;50.848;4.334;2023-04-25T01:05:33;17.80;;;4.57;;
14474;SDS011;7323;50.848;4.334;2023-04-25T01:08:05;13.77;;;4.30;;
14474;SDS011;7323;50.848;4.334;2023-04-25T01:10:49;16.63;;;6.00;;
14474;SDS011;7323;50.848;4.334;2023-04-25T01:13:17;13.87;;;5.10;;
14474;SDS011;7323;50.848;4.334;2023-04-25T01:16:09;14.43;;;5.50;;
14474;SDS011;7323;50.848;4.334;2023-04-25T01:22:11;22.30;;;5.57;;
14474;SDS011;7323;50.848;4.334;2023-04-25T01:24:41;14.53;;;5.30;;
14474;SDS011;7323;50.848;4.334;2023-04-25T01:27:26;14.67;;;5.67;;
14474;SDS011;7323;50.848;4.334;2023-04-25T01:30:08;16.33;;;6.40;;
14474;SDS011;7323;50.848;4.334;2023-04-25T01:32:41;17.50;;;5.97;;
14474;SDS011;7323;50.848;4.334;2023-04-25T01:35:32;18.60;;;5.47;;
14474;SDS011;7323;50.848;4.334;2023-04-25T01:37:58;13.07;;;4.80;;
14474;SDS011;7323;50.848;4.334;2023-04-25T01:40:24;13.67;;;5.73;;
14474;SDS011;7323;50.848;4.334;2023-04-25T01:42:51;18.47;;;5.50;;
14474;SDS011;7323;50.848;4.334;2023-04-25T01:45:22;16.90;;;5.43;;
14474;SDS011;7323;50.848;4.334;2023-04-25T01:47:54;13.87;;;5.33;;
14474;SDS011;7323;50.848;4.334;2023-04-25T01:50:25;14.50;;;5.53;;
14474;SDS011;7323;50.848;4.334;2023-04-25T01:56:14;14.43;;;5.13;;
14474;SDS011;7323;50.848;4.334;2023-04-25T02:01:55;14.30;;;6.00;;
14474;SDS011;7323;50.848;4.334;2023-04-25T02:04:48;18.63;;;5.53;;
14474;SDS011;7323;50.848;4.334;2023-04-25T02:07:14;10.37;;;4.80;;
14474;SDS011;7323;50.848;4.334;2023-04-25T02:16:21;13.70;;;5.43;;
14474;SDS011;7323;50.848;4.334;2023-04-25T02:19:19;14.63;;;5.23;;
14474;SDS011;7323;50.848;4.334;2023-04-25T02:21:45;17.90;;;5.53;;
14474;SDS011;7323;50.848;4.334;2023-04-25T02:24:11;17.37;;;6.00;;
14474;SDS011;7323;50.848;4.334;2023-04-25T02:26:57;16.40;;;5.50;;
14474;SDS011;7323;50.848;4.334;2023-04-25T02:30:18;14.07;;;5.23;;
14474;SDS011;7323;50.848;4.334;2023-04-25T02:39:51;13.23;;;5.10;;
14474;SDS011;7323;50.848;4.334;2023-04-25T02:42:47;19.03;;;5.67;;
14474;SDS011;7323;50.848;4.334;2023-04-25T02:45:42;16.60;;;5.30;;
14474;SDS011;7323;50.848;4.334;2023-04-25T02:48:46;20.00;;;5.33;;
14474;SDS011;7323;50.848;4.334;2023-04-25T02:51:23;14.00;;;6.20;;
14474;SDS011;7323;50.848;4.334;2023-04-25T02:53:57;19.47;;;6.60;;
14474;SDS011;7323;50.848;4.334;2023-04-25T02:56:26;18.23;;;5.57;;
14474;SDS011;7323;50.848;4.334;2023-04-25T02:59:22;13.57;;;5.30;;
14474;SDS011;7323;50.848;4.334;2023-04-25T03:02:00;14.60;;;5.10;;
14474;SDS011;7323;50.848;4.334;2023-04-25T03:04:30;17.10;;;5.67;;
14474;SDS011;7323;50.848;4.334;2023-04-25T03:07:01;18.97;;;6.10;;
14474;SDS011;7323;50.848;4.334;2023-04-25T03:09:31;19.80;;;5.83;;
14474;SDS011;7323;50.848;4.334;2023-04-25T03:12:00;16.30;;;5.53;;
14474;SDS011;7323;50.848;4.334;2023-04-25T03:14:34;16.33;;;6.03;;
14474;SDS011;7323;50.848;4.334;2023-04-25T03:17:03;14.37;;;4.83;;
14474;SDS011;7323;50.848;4.334;2023-04-25T03:19:32;17.60;;;5.50;;
14474;SDS011;7323;50.848;4.334;2023-04-25T03:22:04;17.27;;;6.07;;
14474;SDS011;7323;50.848;4.334;2023-04-25T03:24:33;18.20;;;5.40;;
14474;SDS011;7323;50.848;4.334;2023-04-25T03:27:16;13.73;;;5.17;;
14474;SDS011;7323;50.848;4.334;2023-04-25T03:29:53;15.03;;;4.87;;
14474;SDS011;7323;50.848;4.334;2023-04-25T03:32:20;15.97;;;5.40;;
14474;SDS011;7323;50.848;4.334;2023-04-25T03:34:46;19.60;;;6.27;;
14474;SDS011;7323;50.848;4.334;2023-04-25T03:37:44;18.90;;;5.20;;
14474;SDS011;7323;50.848;4.334;2023-04-25T03:40:13;20.23;;;6.20;;
14474;SDS011;7323;50.848;4.334;2023-04-25T03:42:59;17.77;;;5.53;;
14474;SDS011;7323;50.848;4.334;2023-04-25T03:45:42;16.43;;;5.30;;
14474;SDS011;7323;50.848;4.334;2023-04-25T03:48:11;16.47;;;4.97;;
14474;SDS011;7323;50.848;4.334;2023-04-25T03:50:39;11.67;;;4.60;;
14474;SDS011;7323;50.848;4.334;2023-04-25T03:53:28;16.00;;;4.83;;
14474;SDS011;7323;50.848;4.334;2023-04-25T03:56:51;17.00;;;5.80;;
14474;SDS011;7323;50.848;4.334;2023-04-25T03:59:01;16.40;;;5.10;;
14474;SDS011;7323;50.848;4.334;2023-04-25T04:01:26;12.90;;;4.23;;
14474;SDS011;7323;50.848;4.334;2023-04-25T04:03:58;14.77;;;5.13;;
14474;SDS011;7323;50.848;4.334;2023-04-25T04:06:26;11.73;;;3.93;;
14474;SDS011;7323;50.848;4.334;2023-04-25T04:08:52;12.90;;;4.23;;
14474;SDS011;7323;50.848;4.334;2023-04-25T04:11:24;13.37;;;4.60;;
14474;SDS011;7323;50.848;4.334;2023-04-25T04:13:54;14.70;;;5.30;;
14474;SDS011;7323;50.848;4.334;2023-04-25T04:16:22;15.43;;;4.50;;
14474;SDS011;7323;50.848;4.334;2023-04-25T04:18:54;13.23;;;4.47;;
14474;SDS011;7323;50.848;4.334;2023-04-25T04:21:20;13.17;;;4.07;;
14474;SDS011;7323;50.848;4.334;2023-04-25T04:23:52;14.73;;;4.37;;
14474;SDS011;7323;50.848;4.334;2023-04-25T04:26:27;21.90;;;4.77;;
14474;SDS011;7323;50.848;4.334;2023-04-25T04:35:47;11.00;;;4.00;;
14474;SDS011;7323;50.848;4.334;2023-04-25T04:38:16;15.03;;;5.73;;
14474;SDS011;7323;50.848;4.334;2023-04-25T04:40:57;16.97;;;4.33;;
14474;SDS011;7323;50.848;4.334;2023-04-25T04:43:55;11.00;;;3.93;;
14474;SDS011;7323;50.848;4.334;2023-04-25T04:46:25;13.70;;;4.47;;
14474;SDS011;7323;50.848;4.334;2023-04-25T04:49:08;17.97;;;5.20;;
14474;SDS011;7323;50.848;4.334;2023-04-25T04:52:22;13.10;;;4.80;;
14474;SDS011;7323;50.848;4.334;2023-04-25T04:55:32;16.63;;;5.87;;
14474;SDS011;7323;50.848;4.334;2023-04-25T05:05:26;12.47;;;4.73;;
14474;SDS011;7323;50.848;4.334;2023-04-25T05:09:19;14.77;;;5.13;;
14474;SDS011;7323;50.848;4.334;2023-04-25T05:11:56;17.70;;;5.20;;
14474;SDS011;7323;50.848;4.334;2023-04-25T05:14:23;13.73;;;4.27;;
14474;SDS011;7323;50.848;4.334;2023-04-25T05:20:10;12.87;;;4.23;;
14474;SDS011;7323;50.848;4.334;2023-04-25T05:22:57;8.40;;;4.33;;
14474;SDS011;7323;50.848;4.334;2023-04-25T05:28:51;14.07;;;5.37;;
14474;SDS011;7323;50.848;4.334;2023-04-25T05:31:17;10.23;;;4.43;;
14474;SDS011;7323;50.848;4.334;2023-04-25T05:47:00;14.70;;;6.07;;
14474;SDS011;7323;50.848;4.334;2023-04-25T05:49:32;14.07;;;5.13;;
14474;SDS011;7323;50.848;4.334;2023-04-25T05:52:10;16.47;;;5.40;;
14474;SDS011;7323;50.848;4.334;2023-04-25T05:57:25;13.23;;;5.10;;
14474;SDS011;7323;50.848;4.334;2023-04-25T06:02:55;13.57;;;5.33;;
14474;SDS011;7323;50.848;4.334;2023-04-25T06:05:24;12.00;;;5.53;;
14474;SDS011;7323;50.848;4.334;2023-04-25T06:07:56;15.87;;;5.50;;
14474;SDS011;7323;50.848;4.334;2023-04-25T06:10:56;12.33;;;5.70;;
14474;SDS011;7323;50.848;4.334;2023-04-25T06:13:41;16.03;;;5.13;;
14474;SDS011;7323;50.848;4.334;2023-04-25T06:16:07;15.90;;;6.10;;
14474;SDS011;7323;50.848;4.334;2023-04-25T06:21:45;13.80;;;5.47;;
14474;SDS011;7323;50.848;4.334;2023-04-25T06:24:37;10.07;;;4.73;;
14474;SDS011;7323;50.848;4.334;2023-04-25T06:27:07;12.87;;;5.00;;
14474;SDS011;7323;50.848;4.334;2023-04-25T06:29:49;12.47;;;4.10;;
14474;SDS011;7323;50.848;4.334;2023-04-25T06:32:47;9.13;;;4.30;;
14474;SDS011;7323;50.848;4.334;2023-04-25T06:35:45;8.30;;;3.50;;
14474;SDS011;7323;50.848;4.334;2023-04-25T06:38:14;11.40;;;3.90;;
14474;SDS011;7323;50.848;4.334;2023-04-25T06:40:41;17.00;;;4.83;;
14474;SDS011;7323;50.848;4.334;2023-04-25T06:43:51;14.90;;;4.70;;
14474;SDS011;7323;50.848;4.334;2023-04-25T06:49:09;13.50;;;3.87;;
14474;SDS011;7323;50.848;4.334;2023-04-25T06:51:35;12.53;;;4.30;;
14474;SDS011;7323;50.848;4.334;2023-04-25T06:54:02;11.97;;;3.83;;
14474;SDS011;7323;50.848;4.334;2023-04-25T06:56:29;14.83;;;4.23;;
14474;SDS011;7323;50.848;4.334;2023-04-25T06:59:03;15.37;;;3.90;;
14474;SDS011;7323;50.848;4.334;2023-04-25T07:01:40;10.03;;;3.70;;
14474;SDS011;7323;50.848;4.334;2023-04-25T07:04:09;19.97;;;4.23;;
14474;SDS011;7323;50.848;4.334;2023-04-25T07:06:41;15.03;;;4.20;;
14474;SDS011;7323;50.848;4.334;2023-04-25T07:09:16;16.17;;;4.30;;
14474;SDS011;7323;50.848;4.334;2023-04-25T07:12:20;12.33;;;4.07;;
14474;SDS011;7323;50.848;4.334;2023-04-25T07:15:03;15.20;;;3.60;;
14474;SDS011;7323;50.848;4.334;2023-04-25T07:17:42;9.93;;;3.60;;
14474;SDS011;7323;50.848;4.334;2023-04-25T07:20:20;13.83;;;3.60;;
14474;SDS011;7323;50.848;4.334;2023-04-25T07:22:49;11.97;;;3.93;;
14474;SDS011;7323;50.848;4.334;2023-04-25T07:25:18;11.90;;;3.57;;
14474;SDS011;7323;50.848;4.334;2023-04-25T07:27:49;9.17;;;3.77;;
14474;SDS011;7323;50.848;4.334;2023-04-25T07:30:24;7.97;;;3.20;;
14474;SDS011;7323;50.848;4.334;2023-04-25T07:36:22;11.67;;;3.33;;
14474;SDS011;7323;50.848;4.334;2023-04-25T07:38:52;11.27;;;3.33;;
14474;SDS011;7323;50.848;4.334;2023-04-25T07:41:23;9.23;;;3.27;;
14474;SDS011;7323;50.848;4.334;2023-04-25T07:43:52;10.57;;;2.87;;
14474;SDS011;7323;50.848;4.334;2023-04-25T07:46:40;11.23;;;2.90;;
14474;SDS011;7323;50.848;4.334;2023-04-25T07:51:41;6.87;;;2.97;;
14474;SDS011;7323;50.848;4.334;2023-04-25T07:54:08;8.77;;;2.80;;
14474;SDS011;7323;50.848;4.334;2023-04-25T07:56:38;7.73;;;2.90;;
14474;SDS011;7323;50.848;4.334;2023-04-25T07:59:14;10.63;;;3.40;;
14474;SDS011;7323;50.848;4.334;2023-04-25T08:01:43;11.47;;;2.70;;
14474;SDS011;7323;50.848;4.334;2023-04-25T08:04:09;8.20;;;3.30;;
14474;SDS011;7323;50.848;4.334;2023-04-25T08:06:36;14.00;;;3.37;;
14474;SDS011;7323;50.848;4.334;2023-04-25T08:09:02;10.10;;;3.30;;
14474;SDS011;7323;50.848;4.334;2023-04-25T08:11:53;6.93;;;3.00;;
14474;SDS011;7323;50.848;4.334;2023-04-25T08:14:30;10.47;;;3.10;;
14474;SDS011;7323;50.848;4.334;2023-04-25T08:20:18;11.00;;;3.03;;
14474;SDS011;7323;50.848;4.334;2023-04-25T08:22:44;13.80;;;4.27;;
14474;SDS011;7323;50.848;4.334;2023-04-25T08:25:11;11.23;;;3.17;;
14474;SDS011;7323;50.848;4.334;2023-04-25T08:27:37;9.73;;;3.00;;
14474;SDS011;7323;50.848;4.334;2023-04-25T08:30:05;9.07;;;2.90;;
14474;SDS011;7323;50.848;4.334;2023-04-25T08:32:33;8.10;;;2.83;;
14474;SDS011;7323;50.848;4.334;2023-04-25T08:34:59;11.37;;;3.10;;
14474;SDS011;7323;50.848;4.334;2023-04-25T08:37:25;10.63;;;3.50;;
14474;SDS011;7323;50.848;4.334;2023-04-25T08:39:51;7.83;;;2.70;;
14474;SDS011;7323;50.848;4.334;2023-04-25T08:42:20;8.40;;;3.27;;
14474;SDS011;7323;50.848;4.334;2023-04-25T08:44:48;7.70;;;2.60;;
14474;SDS011;7323;50.848;4.334;2023-04-25T08:47:15;10.13;;;2.93;;
14474;SDS011;7323;50.848;4.334;2023-04-25T08:49:49;5.80;;;2.50;;
14474;SDS011;7323;50.848;4.334;2023-04-25T08:52:27;9.17;;;3.37;;
14474;SDS011;7323;50.848;4.334;2023-04-25T08:54:55;10.27;;;3.23;;
14474;SDS011;7323;50.848;4.334;2023-04-25T08:57:31;6.20;;;2.80;;
14474;SDS011;7323;50.848;4.334;2023-04-25T09:02:49;7.43;;;2.30;;
14474;SDS011;7323;50.848;4.334;2023-04-25T09:05:16;9.17;;;2.83;;
14474;SDS011;7323;50.848;4.334;2023-04-25T09:07:43;7.33;;;2.60;;
14474;SDS011;7323;50.848;4.334;2023-04-25T09:10:11;8.03;;;2.53;;
14474;SDS011;7323;50.848;4.334;2023-04-25T09:12:37;8.50;;;2.57;;
14474;SDS011;7323;50.848;4.334;2023-04-25T09:17:33;9.03;;;2.23;;
14474;SDS011;7323;50.848;4.334;2023-04-25T09:20:09;7.60;;;2.20;;
14474;SDS011;7323;50.848;4.334;2023-04-25T09:22:37;7.97;;;2.40;;
14474;SDS011;7323;50.848;4.334;2023-04-25T09:25:04;7.40;;;2.30;;
14474;SDS011;7323;50.848;4.334;2023-04-25T09:27:48;6.80;;;2.30;;
14474;SDS011;7323;50.848;4.334;2023-04-25T09:30:16;7.97;;;2.17;;
14474;SDS011;7323;50.848;4.334;2023-04-25T09:32:44;9.20;;;2.23;;
14474;SDS011;7323;50.848;4.334;2023-04-25T09:35:10;5.33;;;2.17;;
14474;SDS011;7323;50.848;4.334;2023-04-25T09:37:49;8.33;;;2.53;;
14474;SDS011;7323;50.848;4.334;2023-04-25T09:40:18;5.17;;;2.10;;
14474;SDS011;7323;50.848;4.334;2023-04-25T09:42:58;6.73;;;2.40;;
14474;SDS011;7323;50.848;4.334;2023-04-25T09:45:24;8.67;;;2.67;;
14474;SDS011;7323;50.848;4.334;2023-04-25T09:47:49;10.87;;;2.80;;
14474;SDS011;7323;50.848;4.334;2023-04-25T09:50:20;8.13;;;2.43;;
14474;SDS011;7323;50.848;4.334;2023-04-25T09:53:08;10.83;;;3.10;;
14474;SDS011;7323;50.848;4.334;2023-04-25T09:55:34;8.37;;;2.53;;
14474;SDS011;7323;50.848;4.334;2023-04-25T09:58:02;7.30;;;2.40;;
14474;SDS011;7323;50.848;4.334;2023-04-25T10:00:34;6.10;;;2.20;;
14474;SDS011;7323;50.848;4.334;2023-04-25T10:03:01;7.67;;;2.43;;
14474;SDS011;7323;50.848;4.334;2023-04-25T10:05:34;7.17;;;1.57;;
14474;SDS011;7323;50.848;4.334;2023-04-25T10:08:02;6.83;;;2.00;;
14474;SDS011;7323;50.848;4.334;2023-04-25T10:10:32;5.50;;;1.60;;
14474;SDS011;7323;50.848;4.334;2023-04-25T10:13:03;5.23;;;1.50;;
14474;SDS011;7323;50.848;4.334;2023-04-25T10:15:32;8.53;;;2.67;;
14474;SDS011;7323;50.848;4.334;2023-04-25T10:18:00;7.47;;;1.90;;
14474;SDS011;7323;50.848;4.334;2023-04-25T10:20:29;4.10;;;1.40;;
14474;SDS011;7323;50.848;4.334;2023-04-25T10:22:58;7.63;;;2.03;;
14474;SDS011;7323;50.848;4.334;2023-04-25T10:25:33;7.50;;;1.67;;
14474;SDS011;7323;50.848;4.334;2023-04-25T10:28:00;6.73;;;1.20;;
14474;SDS011;7323;50.848;4.334;2023-04-25T10:30:28;4.67;;;1.40;;
14474;SDS011;7323;50.848;4.334;2023-04-25T10:32:55;5.13;;;1.50;;
14474;SDS011;7323;50.848;4.334;2023-04-25T10:35:29;4.70;;;1.30;;
14474;SDS011;7323;50.848;4.334;2023-04-25T10:37:59;4.90;;;1.20;;
14474;SDS011;7323;50.848;4.334;2023-04-25T10:40:28;4.37;;;1.30;;
14474;SDS011;7323;50.848;4.334;2023-04-25T10:43:33;5.27;;;1.53;;
14474;SDS011;7323;50.848;4.334;2023-04-25T10:45:54;5.30;;;1.67;;
14474;SDS011;7323;50.848;4.334;2023-04-25T10:54:00;5.67;;;2.13;;
14474;SDS011;7323;50.848;4.334;2023-04-25T10:56:35;6.73;;;1.83;;
14474;SDS011;7323;50.848;4.334;2023-04-25T11:01:41;7.37;;;1.83;;
14474;SDS011;7323;50.848;4.334;2023-04-25T11:04:24;6.03;;;1.87;;
14474;SDS011;7323;50.848;4.334;2023-04-25T11:09:27;9.73;;;2.07;;
14474;SDS011;7323;50.848;4.334;2023-04-25T11:11:54;5.30;;;1.60;;
14474;SDS011;7323;50.848;4.334;2023-04-25T11:14:20;9.63;;;2.20;;
14474;SDS011;7323;50.848;4.334;2023-04-25T11:16:46;10.37;;;1.83;;
14474;SDS011;7323;50.848;4.334;2023-04-25T11:19:12;10.33;;;2.53;;
14474;SDS011;7323;50.848;4.334;2023-04-25T11:21:38;8.77;;;1.87;;
14474;SDS011;7323;50.848;4.334;2023-04-25T11:24:04;4.37;;;1.70;;
14474;SDS011;7323;50.848;4.334;2023-04-25T11:26:31;7.13;;;2.17;;
14474;SDS011;7323;50.848;4.334;2023-04-25T11:28:57;3.27;;;1.20;;
14474;SDS011;7323;50.848;4.334;2023-04-25T11:31:26;5.93;;;1.93;;
14474;SDS011;7323;50.848;4.334;2023-04-25T11:33:53;6.50;;;1.57;;
14474;SDS011;7323;50.848;4.334;2023-04-25T11:36:20;5.23;;;1.73;;
14474;SDS011;7323;50.848;4.334;2023-04-25T11:38:47;5.93;;;1.70;;
14474;SDS011;7323;50.848;4.334;2023-04-25T11:41:13;5.70;;;1.57;;
14474;SDS011;7323;50.848;4.334;2023-04-25T11:43:38;6.00;;;1.60;;
14474;SDS011;7323;50.848;4.334;2023-04-25T11:46:09;8.10;;;1.97;;
14474;SDS011;7323;50.848;4.334;2023-04-25T11:48:41;6.60;;;2.00;;
14474;SDS011;7323;50.848;4.334;2023-04-25T11:51:08;5.37;;;1.60;;
14474;SDS011;7323;50.848;4.334;2023-04-25T11:53:35;3.10;;;1.20;;
14474;SDS011;7323;50.848;4.334;2023-04-25T11:56:01;4.27;;;1.60;;
14474;SDS011;7323;50.848;4.334;2023-04-25T11:58:53;5.50;;;1.40;;
14474;SDS011;7323;50.848;4.334;2023-04-25T12:01:25;3.70;;;1.63;;
14474;SDS011;7323;50.848;4.334;2023-04-25T12:03:58;4.50;;;1.70;;
14474;SDS011;7323;50.848;4.334;2023-04-25T12:06:38;6.00;;;1.90;;
14474;SDS011;7323;50.848;4.334;2023-04-25T12:09:07;4.83;;;1.63;;
14474;SDS011;7323;50.848;4.334;2023-04-25T12:14:35;3.33;;;1.77;;
14474;SDS011;7323;50.848;4.334;2023-04-25T12:17:02;4.13;;;1.70;;
14474;SDS011;7323;50.848;4.334;2023-04-25T12:19:32;7.70;;;1.90;;
14474;SDS011;7323;50.848;4.334;2023-04-25T12:22:02;4.47;;;1.77;;
14474;SDS011;7323;50.848;4.334;2023-04-25T12:24:32;5.10;;;1.73;;
14474;SDS011;7323;50.848;4.334;2023-04-25T12:27:03;4.80;;;1.40;;
14474;SDS011;7323;50.848;4.334;2023-04-25T12:29:37;3.37;;;0.90;;
14474;SDS011;7323;50.848;4.334;2023-04-25T12:32:08;5.47;;;1.40;;
14474;SDS011;7323;50.848;4.334;2023-04-25T12:37:02;2.30;;;0.93;;
14474;SDS011;7323;50.848;4.334;2023-04-25T12:39:28;3.17;;;1.20;;
14474;SDS011;7323;50.848;4.334;2023-04-25T12:41:54;3.83;;;1.20;;
14474;SDS011;7323;50.848;4.334;2023-04-25T12:44:20;5.03;;;1.57;;
14474;SDS011;7323;50.848;4.334;2023-04-25T12:46:47;3.07;;;1.10;;
14474;SDS011;7323;50.848;4.334;2023-04-25T12:49:13;4.90;;;1.40;;
14474;SDS011;7323;50.848;4.334;2023-04-25T12:51:39;6.57;;;1.97;;
14474;SDS011;7323;50.848;4.334;2023-04-25T12:54:06;4.93;;;1.73;;
14474;SDS011;7323;50.848;4.334;2023-04-25T12:56:37;3.37;;;1.20;;
14474;SDS011;7323;50.848;4.334;2023-04-25T12:59:03;4.03;;;1.20;;
14474;SDS011;7323;50.848;4.334;2023-04-25T13:01:30;5.43;;;1.50;;
14474;SDS011;7323;50.848;4.334;2023-04-25T13:04:12;5.43;;;1.30;;
14474;SDS011;7323;50.848;4.334;2023-04-25T13:06:38;4.27;;;1.30;;
14474;SDS011;7323;50.848;4.334;2023-04-25T13:09:05;3.87;;;1.63;;
14474;SDS011;7323;50.848;4.334;2023-04-25T13:11:31;6.73;;;1.30;;
14474;SDS011;7323;50.848;4.334;2023-04-25T13:14:00;6.27;;;1.83;;
14474;SDS011;7323;50.848;4.334;2023-04-25T13:16:25;3.70;;;1.30;;
14474;SDS011;7323;50.848;4.334;2023-04-25T13:18:52;5.13;;;1.40;;
14474;SDS011;7323;50.848;4.334;2023-04-25T13:21:20;3.17;;;1.67;;
14474;SDS011;7323;50.848;4.334;2023-04-25T13:23:46;7.50;;;1.40;;
14474;SDS011;7323;50.848;4.334;2023-04-25T13:26:15;4.40;;;1.50;;
14474;SDS011;7323;50.848;4.334;2023-04-25T13:28:42;4.00;;;1.33;;
14474;SDS011;7323;50.848;4.334;2023-04-25T13:31:11;5.13;;;1.30;;
14474;SDS011;7323;50.848;4.334;2023-04-25T13:33:37;4.13;;;1.20;;
14474;SDS011;7323;50.848;4.334;2023-04-25T13:36:02;3.93;;;1.20;;
14474;SDS011;7323;50.848;4.334;2023-04-25T13:38:28;7.77;;;1.60;;
14474;SDS011;7323;50.848;4.334;2023-04-25T13:40:54;4.10;;;1.37;;
14474;SDS011;7323;50.848;4.334;2023-04-25T13:43:20;4.70;;;1.57;;
14474;SDS011;7323;50.848;4.334;2023-04-25T13:45:49;3.73;;;1.40;;
14474;SDS011;7323;50.848;4.334;2023-04-25T13:48:18;3.17;;;1.07;;
14474;SDS011;7323;50.848;4.334;2023-04-25T13:50:44;3.43;;;1.23;;
14474;SDS011;7323;50.848;4.334;2023-04-25T13:53:11;5.57;;;1.37;;
14474;SDS011;7323;50.848;4.334;2023-04-25T13:55:37;7.27;;;1.37;;
14474;SDS011;7323;50.848;4.334;2023-04-25T13:58:03;7.03;;;1.60;;
14474;SDS011;7323;50.848;4.334;2023-04-25T14:00:33;4.40;;;1.37;;
14474;SDS011;7323;50.848;4.334;2023-04-25T14:03:03;4.17;;;1.33;;
14474;SDS011;7323;50.848;4.334;2023-04-25T14:05:33;4.83;;;1.90;;
14474;SDS011;7323;50.848;4.334;2023-04-25T14:08:07;3.33;;;1.43;;
14474;SDS011;7323;50.848;4.334;2023-04-25T14:10:35;3.80;;;1.37;;
14474;SDS011;7323;50.848;4.334;2023-04-25T14:13:02;3.17;;;1.33;;
14474;SDS011;7323;50.848;4.334;2023-04-25T14:15:28;5.23;;;1.33;;
14474;SDS011;7323;50.848;4.334;2023-04-25T14:17:55;6.30;;;1.50;;
14474;SDS011;7323;50.848;4.334;2023-04-25T14:20:21;5.77;;;1.50;;
14474;SDS011;7323;50.848;4.334;2023-04-25T14:22:48;6.00;;;1.50;;
14474;SDS011;7323;50.848;4.334;2023-04-25T14:25:21;4.33;;;1.57;;
14474;SDS011;7323;50.848;4.334;2023-04-25T14:27:48;8.43;;;1.67;;
14474;SDS011;7323;50.848;4.334;2023-04-25T14:30:15;4.70;;;1.80;;
14474;SDS011;7323;50.848;4.334;2023-04-25T14:32:44;4.63;;;1.97;;
14474;SDS011;7323;50.848;4.334;2023-04-25T14:35:13;2.70;;;1.20;;
14474;SDS011;7323;50.848;4.334;2023-04-25T14:37:41;5.00;;;1.53;;
14474;SDS011;7323;50.848;4.334;2023-04-25T14:40:07;4.23;;;1.60;;
14474;SDS011;7323;50.848;4.334;2023-04-25T14:42:41;5.00;;;1.70;;
14474;SDS011;7323;50.848;4.334;2023-04-25T14:45:07;7.70;;;1.60;;
14474;SDS011;7323;50.848;4.334;2023-04-25T14:47:34;4.13;;;1.50;;
14474;SDS011;7323;50.848;4.334;2023-04-25T14:50:02;3.70;;;1.30;;
14474;SDS011;7323;50.848;4.334;2023-04-25T14:54:58;4.43;;;1.90;;
14474;SDS011;7323;50.848;4.334;2023-04-25T14:57:26;5.47;;;1.67;;
14474;SDS011;7323;50.848;4.334;2023-04-25T14:59:52;5.37;;;1.93;;
14474;SDS011;7323;50.848;4.334;2023-04-25T15:02:20;3.73;;;1.67;;
14474;SDS011;7323;50.848;4.334;2023-04-25T15:04:46;3.33;;;1.27;;
14474;SDS011;7323;50.848;4.334;2023-04-25T15:07:12;3.27;;;1.27;;
14474;SDS011;7323;50.848;4.334;2023-04-25T15:09:37;6.97;;;2.00;;
14474;SDS011;7323;50.848;4.334;2023-04-25T15:12:03;2.97;;;1.30;;
14474;SDS011;7323;50.848;4.334;2023-04-25T15:14:31;4.40;;;1.50;;
14474;SDS011;7323;50.848;4.334;2023-04-25T15:16:59;4.20;;;1.50;;
14474;SDS011;7323;50.848;4.334;2023-04-25T15:19:27;7.13;;;1.60;;
14474;SDS011;7323;50.848;4.334;2023-04-25T15:21:53;2.87;;;1.30;;
14474;SDS011;7323;50.848;4.334;2023-04-25T15:24:19;3.67;;;1.30;;
14474;SDS011;7323;50.848;4.334;2023-04-25T15:26:47;3.57;;;1.20;;
14474;SDS011;7323;50.848;4.334;2023-04-25T15:32:24;3.27;;;1.20;;
14474;SDS011;7323;50.848;4.334;2023-04-25T15:34:50;5.67;;;1.73;;
14474;SDS011;7323;50.848;4.334;2023-04-25T15:37:19;8.20;;;1.73;;
14474;SDS011;7323;50.848;4.334;2023-04-25T15:39:45;5.57;;;1.53;;
14474;SDS011;7323;50.848;4.334;2023-04-25T15:42:26;6.57;;;1.60;;
14474;SDS011;7323;50.848;4.334;2023-04-25T15:44:51;5.30;;;1.70;;
14474;SDS011;7323;50.848;4.334;2023-04-25T15:47:19;6.60;;;1.73;;
14474;SDS011;7323;50.848;4.334;2023-04-25T15:49:44;3.87;;;1.40;;
14474;SDS011;7323;50.848;4.334;2023-04-25T15:52:12;4.67;;;1.50;;
14474;SDS011;7323;50.848;4.334;2023-04-25T15:54:39;4.67;;;1.20;;
14474;SDS011;7323;50.848;4.334;2023-04-25T15:57:08;6.80;;;1.77;;
14474;SDS011;7323;50.848;4.334;2023-04-25T15:59:37;5.40;;;1.13;;
14474;SDS011;7323;50.848;4.334;2023-04-25T16:02:02;7.70;;;1.53;;
14474;SDS011;7323;50.848;4.334;2023-04-25T16:04:30;7.13;;;1.70;;
14474;SDS011;7323;50.848;4.334;2023-04-25T16:07:00;4.67;;;1.37;;
14474;SDS011;7323;50.848;4.334;2023-04-25T16:09:43;5.20;;;1.60;;
14474;SDS011;7323;50.848;4.334;2023-04-25T16:12:10;3.57;;;1.57;;
14474;SDS011;7323;50.848;4.334;2023-04-25T16:14:40;5.17;;;1.40;;
14474;SDS011;7323;50.848;4.334;2023-04-25T16:17:05;7.13;;;1.50;;
14474;SDS011;7323;50.848;4.334;2023-04-25T16:19:31;3.80;;;1.30;;
14474;SDS011;7323;50.848;4.334;2023-04-25T16:21:59;4.43;;;1.43;;
14474;SDS011;7323;50.848;4.334;2023-04-25T16:24:30;4.33;;;1.40;;
14474;SDS011;7323;50.848;4.334;2023-04-25T16:26:57;4.63;;;1.40;;
14474;SDS011;7323;50.848;4.334;2023-04-25T16:29:23;3.93;;;1.30;;
14474;SDS011;7323;50.848;4.334;2023-04-25T16:31:48;5.73;;;1.50;;
14474;SDS011;7323;50.848;4.334;2023-04-25T16:34:14;4.50;;;1.30;;
14474;SDS011;7323;50.848;4.334;2023-04-25T16:36:41;6.10;;;1.63;;
14474;SDS011;7323;50.848;4.334;2023-04-25T16:39:06;4.10;;;1.17;;
14474;SDS011;7323;50.848;4.334;2023-04-25T16:41:33;3.77;;;1.40;;
14474;SDS011;7323;50.848;4.334;2023-04-25T16:43:59;6.83;;;1.80;;
14474;SDS011;7323;50.848;4.334;2023-04-25T16:46:25;5.87;;;1.50;;
14474;SDS011;7323;50.848;4.334;2023-04-25T16:48:51;3.60;;;1.23;;
14474;SDS011;7323;50.848;4.334;2023-04-25T16:51:17;4.30;;;1.30;;
14474;SDS011;7323;50.848;4.334;2023-04-25T16:53:43;4.97;;;1.53;;
14474;SDS011;7323;50.848;4.334;2023-04-25T16:56:11;4.73;;;1.40;;
14474;SDS011;7323;50.848;4.334;2023-04-25T16:58:39;3.93;;;1.40;;
14474;SDS011;7323;50.848;4.334;2023-04-25T17:01:05;5.57;;;1.57;;
14474;SDS011;7323;50.848;4.334;2023-04-25T17:03:33;5.27;;;1.53;;
14474;SDS011;7323;50.848;4.334;2023-04-25T17:06:02;8.03;;;1.60;;
14474;SDS011;7323;50.848;4.334;2023-04-25T17:08:30;4.77;;;1.50;;
14474;SDS011;7323;50.848;4.334;2023-04-25T17:11:17;5.63;;;1.60;;
14474;SDS011;7323;50.848;4.334;2023-04-25T17:13:45;6.80;;;1.90;;
14474;SDS011;7323;50.848;4.334;2023-04-25T17:16:11;6.00;;;1.53;;
14474;SDS011;7323;50.848;4.334;2023-04-25T17:18:40;7.57;;;1.90;;
14474;SDS011;7323;50.848;4.334;2023-04-25T17:21:07;4.80;;;1.30;;
14474;SDS011;7323;50.848;4.334;2023-04-25T17:23:35;5.43;;;1.60;;
14474;SDS011;7323;50.848;4.334;2023-04-25T17:26:03;4.80;;;1.70;;
14474;SDS011;7323;50.848;4.334;2023-04-25T17:28:30;4.13;;;1.50;;
14474;SDS011;7323;50.848;4.334;2023-04-25T17:31:08;4.03;;;1.63;;
14474;SDS011;7323;50.848;4.334;2023-04-25T17:33:38;5.83;;;1.77;;
14474;SDS011;7323;50.848;4.334;2023-04-25T17:36:04;4.60;;;1.43;;